<?xml version="1.0" encoding="UTF-8" standalone="no" ?>
<gpx xmlns="http://www.topografix.com/GPX/1/1" xmlns:xsi="http://www.w3.org/2001/XMLSchema-instance" xsi:schemaLocation="http://www.topografix.com/GPX/1/1 http://www.topografix.com/GPX/1/1/gpx.xsd" version="1.1" creator="VisuGPX - https://www.visugpx.com">
  <metadata>
    <name>Etape 2 Férel - Les Moûtiers</name>
    <desc><![CDATA[Randonnée vélo Rennes - Hendaye, empruntant la Vélodyssée à partir de Saint-Brevin-Les-Pins. ]]></desc>
  </metadata>
  <trk>
    <name><![CDATA[Sequence 21]]></name>
    <trkseg>
      <trkpt lat="47.24732" lon="-2.16859">
        <ele>3</ele>
        <time>2016-07-22T12:00:29Z</time>
      </trkpt>
      <trkpt lat="47.24737" lon="-2.16876">
        <ele>2</ele>
        <time>2016-07-22T12:00:33Z</time>
      </trkpt>
      <trkpt lat="47.24739" lon="-2.16897">
        <ele>4</ele>
        <time>2016-07-22T12:00:38Z</time>
      </trkpt>
      <trkpt lat="47.24749" lon="-2.16941">
        <ele>3</ele>
        <time>2016-07-22T12:00:46Z</time>
      </trkpt>
      <trkpt lat="47.24751" lon="-2.16951">
        <ele>4</ele>
        <time>2016-07-22T12:00:48Z</time>
      </trkpt>
      <trkpt lat="47.24724" lon="-2.16965">
        <ele>6</ele>
        <time>2016-07-22T12:00:56Z</time>
      </trkpt>
      <trkpt lat="47.24714" lon="-2.16965">
        <ele>7</ele>
        <time>2016-07-22T12:00:58Z</time>
      </trkpt>
      <trkpt lat="47.24681" lon="-2.16963">
        <ele>7</ele>
        <time>2016-07-22T12:01:05Z</time>
      </trkpt>
      <trkpt lat="47.24669" lon="-2.16964">
        <ele>8</ele>
        <time>2016-07-22T12:01:08Z</time>
      </trkpt>
      <trkpt lat="47.24648" lon="-2.16962">
        <ele>9</ele>
        <time>2016-07-22T12:01:13Z</time>
      </trkpt>
      <trkpt lat="47.24626" lon="-2.16961">
        <ele>9</ele>
        <time>2016-07-22T12:01:18Z</time>
      </trkpt>
      <trkpt lat="47.24602" lon="-2.16953">
        <ele>8</ele>
        <time>2016-07-22T12:01:23Z</time>
      </trkpt>
      <trkpt lat="47.24563" lon="-2.16958">
        <ele>10</ele>
        <time>2016-07-22T12:01:30Z</time>
      </trkpt>
      <trkpt lat="47.24541" lon="-2.16961">
        <ele>10</ele>
        <time>2016-07-22T12:01:34Z</time>
      </trkpt>
      <trkpt lat="47.24519" lon="-2.16961">
        <ele>12</ele>
        <time>2016-07-22T12:01:38Z</time>
      </trkpt>
      <trkpt lat="47.24479" lon="-2.16967">
        <ele>13</ele>
        <time>2016-07-22T12:01:46Z</time>
      </trkpt>
      <trkpt lat="47.24469" lon="-2.16972">
        <ele>13</ele>
        <time>2016-07-22T12:01:48Z</time>
      </trkpt>
      <trkpt lat="47.24448" lon="-2.16986">
        <ele>11</ele>
        <time>2016-07-22T12:01:53Z</time>
      </trkpt>
      <trkpt lat="47.24429" lon="-2.16998">
        <ele>10</ele>
        <time>2016-07-22T12:01:58Z</time>
      </trkpt>
      <trkpt lat="47.24422" lon="-2.17014">
        <ele>9</ele>
        <time>2016-07-22T12:02:03Z</time>
      </trkpt>
      <trkpt lat="47.2441" lon="-2.1703">
        <ele>6</ele>
        <time>2016-07-22T12:02:08Z</time>
      </trkpt>
      <trkpt lat="47.24393" lon="-2.17033">
        <ele>7</ele>
        <time>2016-07-22T12:02:13Z</time>
      </trkpt>
      <trkpt lat="47.24371" lon="-2.17035">
        <ele>5</ele>
        <time>2016-07-22T12:02:18Z</time>
      </trkpt>
      <trkpt lat="47.24339" lon="-2.17038">
        <ele>7</ele>
        <time>2016-07-22T12:02:25Z</time>
      </trkpt>
      <trkpt lat="47.24324" lon="-2.1704">
        <ele>8</ele>
        <time>2016-07-22T12:02:28Z</time>
      </trkpt>
      <trkpt lat="47.24301" lon="-2.17043">
        <ele>8</ele>
        <time>2016-07-22T12:02:33Z</time>
      </trkpt>
      <trkpt lat="47.24281" lon="-2.17046">
        <ele>8</ele>
        <time>2016-07-22T12:02:38Z</time>
      </trkpt>
      <trkpt lat="47.24259" lon="-2.1705">
        <ele>10</ele>
        <time>2016-07-22T12:02:43Z</time>
      </trkpt>
      <trkpt lat="47.24237" lon="-2.17053">
        <ele>10</ele>
        <time>2016-07-22T12:02:48Z</time>
      </trkpt>
      <trkpt lat="47.24215" lon="-2.17054">
        <ele>10</ele>
        <time>2016-07-22T12:02:53Z</time>
      </trkpt>
      <trkpt lat="47.24193" lon="-2.17056">
        <ele>9</ele>
        <time>2016-07-22T12:02:58Z</time>
      </trkpt>
      <trkpt lat="47.24177" lon="-2.17058">
        <ele>8</ele>
        <time>2016-07-22T12:03:03Z</time>
      </trkpt>
      <trkpt lat="47.24177" lon="-2.17058">
        <ele>9</ele>
        <time>2016-07-22T12:03:08Z</time>
      </trkpt>
    </trkseg>
  </trk>
</gpx>